createdAt,value
2019-04-23T00:00:13.569Z,44.80
2019-04-23T00:02:58.609Z,44.80
2019-04-23T00:08:07.363Z,45.30
2019-04-23T00:10:53.888Z,45.60
2019-04-23T00:12:59.393Z,45.60
2019-04-23T00:15:51.728Z,46.40
2019-04-23T00:18:12.444Z,45.50
2019-04-23T00:20:45.996Z,45.60
2019-04-23T00:26:01.690Z,47.00
2019-04-23T00:28:20.552Z,47.80
2019-04-23T00:30:56.264Z,48.10
2019-04-23T01:16:37.378Z,51.40
2019-04-23T01:19:21.265Z,51.40
2019-04-23T01:21:32.629Z,52.10
2019-04-23T01:24:19.074Z,51.80
2019-04-23T01:30:04.778Z,52.40
2019-04-23T01:32:31.746Z,52.10
2019-04-23T01:35:15.325Z,52.70
2019-04-23T01:37:39.783Z,53.60
2019-04-23T01:40:04.289Z,53.80
2019-04-23T01:42:42.027Z,54.00
2019-04-23T01:45:08.057Z,54.00
2019-04-23T01:47:38.374Z,53.50
2019-04-23T01:52:45.654Z,51.00
2019-04-23T01:55:10.250Z,51.80
2019-04-23T02:00:16.118Z,51.10
2019-04-23T02:02:43.109Z,50.50
2019-04-23T02:05:15.698Z,50.10
2019-04-23T02:10:25.845Z,50.80
2019-04-23T02:12:53.467Z,50.00
2019-04-23T02:15:16.824Z,50.40
2019-04-23T02:17:53.287Z,50.40
2019-04-23T02:20:23.933Z,50.20
2019-04-23T02:22:58.648Z,50.00
2019-04-23T02:25:35.689Z,48.60
2019-04-23T02:27:59.328Z,49.90
2019-04-23T02:35:42.785Z,50.60
2019-04-23T02:38:11.828Z,51.80
2019-04-23T02:41:46.902Z,51.10
2019-04-23T02:45:39.883Z,51.60
2019-04-23T02:48:11.155Z,51.40
2019-04-23T02:50:40.120Z,51.20
2019-04-23T02:53:30.778Z,51.20
2019-04-23T02:58:11.111Z,52.00
2019-04-23T03:01:03.944Z,51.90
2019-04-23T03:03:14.048Z,52.40
2019-04-23T03:05:45.571Z,51.00
2019-04-23T03:08:18.509Z,51.80
2019-04-23T03:10:56.152Z,50.60
2019-04-23T03:13:32.117Z,51.30
2019-04-23T03:26:57.397Z,52.70
2019-04-23T03:29:26.076Z,51.50
2019-04-23T03:39:25.447Z,52.10
2019-04-23T03:41:48.497Z,52.10
2019-04-23T03:44:24.493Z,52.70
2019-04-23T03:46:51.425Z,53.00
2019-04-23T03:49:15.105Z,53.00
2019-04-23T03:52:14.164Z,53.10
2019-04-23T03:54:31.960Z,53.70
2019-04-23T03:59:38.409Z,54.00
2019-04-23T04:02:01.830Z,53.30
2019-04-23T04:06:48.054Z,53.50
2019-04-23T04:12:01.686Z,53.60
2019-04-23T04:14:46.317Z,53.30
2019-04-23T04:17:01.330Z,53.60
2019-04-23T04:24:36.658Z,54.50
2019-04-23T04:27:08.054Z,54.40
2019-04-23T04:29:39.639Z,54.80
2019-04-23T04:32:00.820Z,54.70
2019-04-23T04:39:42.807Z,55.60
2019-04-23T04:42:12.036Z,56.90
2019-04-23T04:47:09.842Z,57.10
2019-04-23T04:49:53.333Z,57.50
2019-04-23T04:54:24.631Z,57.40
2019-04-23T04:57:20.324Z,57.20
2019-04-23T05:05:08.787Z,56.20
2019-04-23T05:07:23.753Z,55.70
2019-04-23T05:12:18.393Z,55.60
2019-04-23T05:14:59.142Z,55.30
2019-04-23T05:17:35.870Z,55.70
2019-04-23T05:19:58.830Z,56.20
2019-04-23T05:22:36.176Z,56.00
2019-04-23T05:24:51.323Z,55.80
2019-04-23T05:27:29.290Z,56.60
2019-04-23T05:30:02.833Z,57.00
2019-04-23T05:32:27.266Z,54.70
2019-04-23T05:35:03.505Z,56.20
2019-04-23T05:37:45.176Z,56.10
2019-04-23T05:40:06.638Z,55.30
2019-04-23T05:42:31.766Z,55.80
2019-04-23T05:45:00.775Z,55.10
2019-04-23T05:47:55.350Z,55.10
2019-04-23T05:50:15.573Z,55.10
2019-04-23T05:52:37.921Z,54.40
2019-04-23T05:57:34.521Z,55.20
2019-04-23T06:00:10.663Z,55.40
2019-04-23T06:02:41.880Z,54.10
2019-04-23T06:05:08.777Z,55.30
2019-04-23T06:07:45.700Z,55.70
2019-04-23T06:10:13.384Z,54.60
2019-04-23T06:12:39.980Z,54.70
2019-04-23T06:15:11.554Z,54.10
2019-04-23T06:18:02.326Z,54.70
2019-04-23T06:20:15.397Z,53.90
2019-04-23T06:25:31.200Z,54.40
2019-04-23T06:27:47.983Z,53.00
2019-04-23T06:30:20.237Z,53.10
2019-04-23T06:32:46.430Z,53.50
2019-04-23T06:35:19.201Z,53.00
2019-04-23T06:38:14.660Z,53.70
2019-04-23T06:40:23.048Z,52.60
2019-04-23T06:42:57.934Z,52.70
2019-04-23T06:45:29.307Z,52.90
2019-04-23T06:48:01.865Z,51.10
2019-04-23T06:50:36.672Z,50.70
2019-04-23T06:53:02.440Z,50.60
2019-04-23T06:55:36.040Z,51.30
2019-04-23T06:58:04.599Z,50.10
2019-04-23T07:00:41.910Z,50.40
2019-04-23T07:03:19.686Z,50.70
2019-04-23T07:06:14.893Z,48.80
2019-04-23T07:08:48.526Z,50.10
2019-04-23T07:11:11.083Z,49.60
2019-04-23T07:13:50.764Z,49.50
2019-04-23T07:16:04.600Z,49.10
2019-04-23T07:18:36.148Z,49.40
2019-04-23T07:21:13.474Z,48.40
2019-04-23T07:23:44.903Z,48.00
2019-04-23T07:26:15.506Z,49.00
2019-04-23T07:28:48.544Z,48.30
2019-04-23T07:31:29.626Z,47.00
2019-04-23T07:33:52.820Z,46.30
2019-04-23T07:36:17.129Z,45.40
2019-04-23T07:38:54.723Z,46.20
2019-04-23T07:41:41.458Z,46.50
2019-04-23T07:47:15.682Z,45.30
2019-04-23T07:52:12.949Z,45.70
2019-04-23T07:54:38.752Z,46.70
2019-04-23T07:57:10.708Z,45.40
2019-04-23T08:02:14.524Z,44.80
2019-04-23T08:04:44.661Z,44.60
2019-04-23T08:07:06.631Z,44.40
2019-04-23T08:09:42.797Z,43.80
2019-04-23T08:12:25.083Z,44.10
2019-04-23T08:14:46.905Z,44.50
2019-04-23T08:17:12.351Z,44.30
2019-04-23T08:19:51.324Z,42.40
2019-04-23T08:22:22.165Z,42.20
2019-04-23T08:25:12.965Z,42.80
2019-04-23T08:27:34.837Z,42.40
2019-04-23T08:30:07.643Z,41.80
2019-04-23T08:32:27.784Z,41.50
2019-04-23T08:37:56.955Z,41.60
2019-04-23T08:40:09.643Z,39.10
2019-04-23T08:42:45.648Z,39.30
2019-04-23T08:48:32.802Z,35.90
2019-04-23T08:55:49.359Z,31.00
2019-04-23T08:58:31.664Z,30.40
2019-04-23T09:00:58.611Z,30.80
2019-04-23T09:03:36.216Z,30.80
2019-04-23T09:08:28.147Z,29.90
2019-04-23T09:13:51.751Z,32.10
2019-04-23T09:15:58.353Z,32.20
2019-04-23T09:20:55.639Z,30.20
2019-04-23T09:23:34.903Z,29.70
2019-04-23T09:26:00.850Z,30.40
2019-04-23T09:31:14.515Z,29.90
2019-04-23T09:33:48.495Z,29.10
2019-04-23T09:36:22.301Z,28.30
2019-04-23T09:39:00.261Z,28.60
2019-04-23T09:41:43.528Z,30.70
2019-04-23T09:44:41.345Z,30.90
2019-04-23T09:49:39.758Z,29.40
2019-04-23T09:52:14.728Z,29.80
2019-04-23T09:54:51.077Z,28.80
2019-04-23T09:57:10.589Z,28.10
2019-04-23T09:59:47.254Z,28.00
2019-04-23T10:02:06.686Z,27.70
2019-04-23T10:04:32.020Z,29.30
2019-04-23T10:07:01.655Z,26.60
2019-04-23T10:09:18.850Z,26.40
2019-04-23T10:11:49.321Z,25.50
2019-04-23T10:14:18.727Z,25.40
2019-04-23T10:16:49.249Z,26.20
2019-04-23T10:19:19.003Z,26.20
2019-04-23T10:21:49.238Z,26.70
2019-04-23T10:24:19.163Z,27.20
2019-04-23T10:26:50.184Z,26.60
2019-04-23T10:29:20.922Z,27.40
2019-04-23T10:31:51.094Z,26.10
2019-04-23T10:34:21.138Z,25.40
2019-04-23T10:36:51.511Z,25.20
2019-04-23T10:39:26.313Z,24.90
2019-04-23T10:41:53.182Z,24.50
2019-04-23T10:44:25.595Z,25.00
2019-04-23T10:47:38.149Z,25.00
2019-04-23T10:50:35.475Z,23.40
2019-04-23T10:53:09.819Z,24.80
2019-04-23T10:55:34.956Z,26.40
2019-04-23T10:58:01.961Z,25.80
2019-04-23T11:00:37.551Z,23.50
2019-04-23T11:03:23.781Z,24.30
2019-04-23T11:08:10.258Z,26.50
2019-04-23T11:10:46.545Z,23.80
2019-04-23T11:13:31.511Z,24.90
2019-04-23T11:16:39.936Z,25.30
2019-04-23T11:18:38.312Z,24.40
2019-04-23T11:20:58.237Z,23.50
2019-04-23T11:23:31.273Z,22.40
2019-04-23T11:25:55.865Z,24.40
2019-04-23T11:28:33.221Z,24.00
2019-04-23T11:31:03.484Z,25.00
2019-04-23T11:33:39.153Z,24.00
2019-04-23T11:41:12.847Z,24.40
2019-04-23T11:46:26.067Z,25.40
2019-04-23T11:53:48.130Z,23.40
2019-04-23T11:56:26.918Z,24.00
2019-04-23T11:58:43.227Z,23.40
2019-04-23T12:01:37.114Z,23.80
2019-04-23T12:04:14.859Z,23.00
2019-04-23T12:06:52.863Z,23.30
2019-04-23T12:09:43.105Z,22.50
2019-04-23T12:12:17.205Z,23.40
2019-04-23T12:22:23.516Z,22.30
2019-04-23T12:27:31.246Z,23.10
2019-04-23T12:30:08.341Z,23.00
2019-04-23T12:37:40.722Z,22.60
2019-04-23T12:45:25.064Z,24.60
2019-04-23T12:52:46.878Z,22.90
2019-04-23T12:55:22.347Z,24.30
2019-04-23T12:57:46.855Z,23.30
2019-04-23T13:00:22.494Z,24.10
2019-04-23T13:05:21.634Z,24.10
2019-04-23T13:07:52.191Z,24.00
2019-04-23T13:10:22.187Z,25.30
2019-04-23T13:15:22.994Z,25.40
2019-04-23T13:23:03.116Z,25.40
2019-04-23T13:25:47.273Z,25.40
2019-04-23T13:30:46.642Z,24.80
2019-04-23T13:33:26.722Z,26.50
2019-04-23T13:35:53.267Z,24.60
2019-04-23T13:40:59.794Z,25.20
2019-04-23T13:43:31.814Z,24.70
2019-04-23T13:48:15.164Z,24.50
2019-04-23T13:53:35.342Z,26.50
2019-04-23T13:55:53.450Z,24.50
2019-04-23T13:58:22.701Z,25.50
2019-04-23T14:01:18.562Z,25.20
2019-04-23T14:06:10.849Z,25.60
2019-04-23T14:11:13.171Z,24.80
2019-04-23T14:13:46.337Z,25.80
2019-04-23T14:16:13.495Z,24.90
2019-04-23T14:18:51.551Z,25.70
2019-04-23T14:26:25.014Z,26.90
2019-04-23T14:28:43.042Z,27.00
2019-04-23T14:31:13.472Z,27.90
2019-04-23T14:33:58.404Z,28.20
2019-04-23T14:36:14.129Z,28.00
2019-04-23T14:38:43.981Z,28.30
2019-04-23T14:46:42.928Z,28.20
2019-04-23T14:48:51.673Z,30.00
2019-04-23T14:51:39.698Z,28.30
2019-04-23T14:53:48.473Z,27.80
2019-04-23T14:56:21.582Z,28.00
2019-04-23T14:59:05.997Z,27.50
2019-04-23T15:03:49.304Z,28.30
2019-04-23T15:06:43.743Z,29.00
2019-04-23T15:09:07.433Z,29.80
2019-04-23T15:13:53.882Z,29.70
2019-04-23T15:16:31.785Z,29.40
2019-04-23T15:19:11.012Z,29.90
2019-04-23T15:21:47.601Z,30.20
2019-04-23T15:24:03.953Z,32.20
2019-04-23T15:28:43.684Z,30.40
2019-04-23T15:37:12.461Z,30.50
2019-04-23T15:46:47.649Z,30.50
2019-04-23T15:54:19.466Z,31.60
2019-04-23T15:56:54.745Z,31.80
2019-04-23T16:01:40.554Z,30.00
2019-04-23T16:03:53.776Z,30.00
2019-04-23T16:06:26.764Z,31.20
2019-04-23T16:09:17.805Z,32.20
2019-04-23T16:11:59.658Z,32.40
2019-04-23T16:16:51.310Z,30.80
2019-04-23T16:19:47.938Z,32.30
2019-04-23T16:22:11.330Z,31.00
2019-04-23T16:24:51.910Z,33.00
2019-04-23T16:27:11.006Z,32.50
2019-04-23T16:30:08.650Z,32.60
2019-04-23T16:34:54.077Z,33.40
2019-04-23T16:37:20.225Z,33.30
2019-04-23T16:42:29.262Z,34.00
2019-04-23T16:45:07.466Z,34.60
2019-04-23T16:47:24.555Z,34.70
2019-04-23T16:52:26.617Z,34.90
2019-04-23T16:54:58.601Z,35.60
2019-04-23T16:57:39.006Z,36.00
2019-04-23T17:02:40.895Z,34.50
2019-04-23T17:05:01.628Z,36.40
2019-04-23T17:07:24.198Z,38.00
2019-04-23T17:10:07.873Z,35.20
2019-04-23T17:12:19.937Z,35.00
2019-04-23T17:15:28.003Z,36.30
2019-04-23T17:17:35.820Z,35.60
2019-04-23T17:20:12.738Z,37.00
2019-04-23T17:22:40.895Z,36.40
2019-04-23T17:27:41.548Z,37.10
2019-04-23T17:30:11.505Z,37.20
2019-04-23T17:33:04.137Z,36.80
2019-04-23T17:35:24.405Z,37.40
2019-04-23T17:38:00.742Z,37.50
2019-04-23T17:40:50.685Z,37.70
2019-04-23T17:48:13.351Z,38.90
2019-04-23T17:50:44.302Z,37.80
2019-04-23T17:53:21.608Z,40.00
2019-04-23T17:55:57.191Z,39.40
2019-04-23T17:58:25.270Z,40.20
2019-04-23T18:03:25.719Z,39.90
2019-04-23T18:06:05.666Z,39.40
2019-04-23T18:08:27.245Z,40.30
2019-04-23T18:11:09.612Z,40.50
2019-04-23T18:13:29.910Z,40.20
2019-04-23T18:16:04.067Z,41.40
2019-04-23T18:21:13.859Z,42.10
2019-04-23T18:23:41.304Z,41.10
2019-04-23T18:26:15.160Z,42.00
2019-04-23T18:28:46.037Z,43.70
2019-04-23T18:31:12.978Z,42.60
2019-04-23T18:36:26.211Z,44.30
2019-04-23T18:39:06.262Z,44.50
2019-04-23T18:41:37.882Z,44.60
2019-04-23T18:44:04.236Z,45.50
2019-04-23T18:46:37.062Z,45.00
2019-04-23T18:49:02.164Z,44.10
2019-04-23T18:51:36.743Z,45.40
2019-04-23T18:53:56.699Z,45.60
2019-04-23T18:56:51.497Z,44.90
2019-04-23T18:59:30.758Z,46.10
2019-04-23T19:01:50.109Z,46.30
2019-04-23T19:06:41.323Z,47.10
2019-04-23T19:10:03.639Z,47.10
2019-04-23T19:12:17.094Z,46.80
2019-04-23T19:22:19.566Z,45.30
2019-04-23T19:25:01.220Z,45.80
2019-04-23T19:32:08.508Z,47.10
2019-04-23T19:34:43.897Z,46.90
2019-04-23T19:37:24.578Z,47.00
2019-04-23T19:39:47.981Z,47.90
2019-04-23T19:42:20.402Z,48.20
2019-04-23T19:44:47.477Z,48.20
2019-04-23T19:47:25.722Z,48.40
2019-04-23T19:50:18.522Z,48.30
2019-04-23T19:52:34.592Z,48.40
2019-04-23T19:57:42.504Z,49.00
2019-04-23T20:04:55.214Z,50.00
2019-04-23T20:10:00.152Z,50.20
2019-04-23T20:14:58.516Z,49.80
2019-04-23T20:17:39.488Z,50.90
2019-04-23T20:20:21.377Z,51.30
2019-04-23T20:22:41.731Z,49.50
2019-04-23T20:25:20.925Z,50.70
2019-04-23T20:30:21.154Z,50.80
2019-04-23T20:32:35.262Z,50.40
2019-04-23T20:33:35.025Z,50.70
2019-04-23T20:38:09.406Z,52.00
2019-04-23T20:40:14.436Z,51.50
2019-04-23T20:42:39.040Z,51.70
2019-04-23T20:45:28.854Z,51.50
2019-04-23T20:47:50.324Z,51.80
2019-04-23T20:50:03.686Z,52.10
2019-04-23T20:52:41.181Z,51.80
2019-04-23T20:55:21.881Z,53.40
2019-04-23T20:57:55.612Z,53.40
2019-04-23T21:00:43.031Z,53.30
2019-04-23T21:06:01.825Z,53.00
2019-04-23T21:08:14.144Z,53.60
2019-04-23T21:15:51.379Z,53.40
2019-04-23T21:18:31.625Z,54.20
2019-04-23T21:31:02.201Z,54.80
2019-04-23T21:33:26.038Z,55.30
2019-04-23T21:36:13.410Z,55.30
2019-04-23T21:41:30.373Z,55.00
2019-04-23T21:46:28.030Z,55.10
2019-04-23T21:49:14.476Z,55.10
2019-04-23T21:51:38.498Z,54.70
2019-04-23T21:56:30.263Z,54.90
2019-04-23T22:06:38.872Z,56.20
2019-04-23T22:14:09.884Z,57.60
2019-04-23T22:16:40.863Z,58.10
2019-04-23T22:24:05.706Z,59.00
2019-04-23T22:26:38.097Z,58.10
2019-04-23T22:31:41.776Z,57.60
2019-04-23T22:36:49.762Z,58.00
2019-04-23T22:39:22.848Z,59.20
2019-04-23T22:41:51.932Z,59.40
2019-04-23T22:44:24.589Z,59.90
2019-04-23T22:46:52.040Z,59.70
2019-04-23T22:49:41.993Z,60.70
2019-04-23T22:52:06.515Z,60.20
2019-04-23T22:54:26.394Z,59.80
2019-04-23T22:56:54.836Z,60.00
2019-04-23T22:59:46.720Z,60.40
2019-04-23T23:02:00.389Z,60.60
2019-04-23T23:04:31.115Z,61.70
2019-04-23T23:07:01.163Z,62.00
2019-04-23T23:09:33.022Z,62.30
2019-04-23T23:14:27.326Z,62.60
2019-04-23T23:17:26.602Z,63.40
2019-04-23T23:19:42.661Z,63.60
2019-04-23T23:24:43.269Z,64.30
2019-04-23T23:27:18.384Z,64.70
2019-04-23T23:29:46.669Z,65.10
2019-04-23T23:32:07.773Z,64.60
2019-04-23T23:34:57.553Z,64.50
2019-04-23T23:37:07.474Z,64.10
2019-04-23T23:39:49.962Z,64.60
2019-04-23T23:42:09.676Z,64.60
2019-04-23T23:47:18.173Z,66.80
2019-04-23T23:49:43.954Z,66.40
2019-04-23T23:52:10.569Z,66.80
2019-04-23T23:54:43.791Z,67.40
